sensor_id;sensor_type;location;lat;lon;timestamp;pressure;altitude;pressure_sealevel;temperature;humidity
8286;BME280;4181;43.416;24.598;2023-03-18T00:01:59;100730.28;;;4.60;100.00
8286;BME280;4181;43.416;24.598;2023-03-18T00:04:26;100747.41;;;4.74;100.00
8286;BME280;4181;43.416;24.598;2023-03-18T00:06:51;100744.78;;;4.87;100.00
8286;BME280;4181;43.416;24.598;2023-03-18T00:09:17;100733.75;;;4.88;100.00
8286;BME280;4181;43.416;24.598;2023-03-18T00:11:42;100734.97;;;4.86;100.00
8286;BME280;4181;43.416;24.598;2023-03-18T00:14:10;100738.56;;;4.93;100.00
8286;BME280;4181;43.416;24.598;2023-03-18T00:16:35;100726.28;;;4.90;100.00
8286;BME280;4181;43.416;24.598;2023-03-18T00:19:01;100738.72;;;4.85;100.00
8286;BME280;4181;43.416;24.598;2023-03-18T00:21:28;100739.31;;;4.74;100.00
8286;BME280;4181;43.416;24.598;2023-03-18T00:23:55;100737.22;;;4.76;100.00
8286;BME280;4181;43.416;24.598;2023-03-18T00:26:24;100726.41;;;4.76;100.00
8286;BME280;4181;43.416;24.598;2023-03-18T00:28:51;100723.31;;;4.79;100.00
8286;BME280;4181;43.416;24.598;2023-03-18T00:31:17;100719.38;;;4.81;100.00
8286;BME280;4181;43.416;24.598;2023-03-18T00:33:43;100722.97;;;4.95;100.00
8286;BME280;4181;43.416;24.598;2023-03-18T00:36:12;100691.75;;;4.92;100.00
8286;BME280;4181;43.416;24.598;2023-03-18T00:38:43;100700.53;;;5.01;100.00
8286;BME280;4181;43.416;24.598;2023-03-18T00:41:10;100728.03;;;5.11;100.00
8286;BME280;4181;43.416;24.598;2023-03-18T00:43:41;100728.28;;;5.22;100.00
8286;BME280;4181;43.416;24.598;2023-03-18T00:46:28;100709.81;;;5.33;100.00
8286;BME280;4181;43.416;24.598;2023-03-18T00:48:55;100725.03;;;5.34;100.00
8286;BME280;4181;43.416;24.598;2023-03-18T00:51:26;100714.00;;;5.35;100.00
8286;BME280;4181;43.416;24.598;2023-03-18T00:53:54;100704.81;;;5.36;100.00
8286;BME280;4181;43.416;24.598;2023-03-18T00:56:25;100715.91;;;5.54;100.00
8286;BME280;4181;43.416;24.598;2023-03-18T00:58:51;100714.47;;;5.58;100.00
8286;BME280;4181;43.416;24.598;2023-03-18T01:01:18;100710.31;;;5.56;100.00
8286;BME280;4181;43.416;24.598;2023-03-18T01:03:45;100709.50;;;5.68;100.00
8286;BME280;4181;43.416;24.598;2023-03-18T01:06:13;100708.66;;;5.68;100.00
8286;BME280;4181;43.416;24.598;2023-03-18T01:08:39;100701.78;;;5.72;100.00
8286;BME280;4181;43.416;24.598;2023-03-18T01:11:05;100711.78;;;5.78;100.00
8286;BME280;4181;43.416;24.598;2023-03-18T01:13:32;100688.25;;;5.78;100.00
8286;BME280;4181;43.416;24.598;2023-03-18T01:15:58;100691.97;;;5.64;100.00
8286;BME280;4181;43.416;24.598;2023-03-18T01:18:23;100692.19;;;5.69;100.00
8286;BME280;4181;43.416;24.598;2023-03-18T01:20:50;100711.66;;;5.92;100.00
8286;BME280;4181;43.416;24.598;2023-03-18T01:23:15;100674.13;;;5.83;100.00
8286;BME280;4181;43.416;24.598;2023-03-18T01:25:41;100708.88;;;5.79;100.00
8286;BME280;4181;43.416;24.598;2023-03-18T01:28:09;100705.34;;;5.79;100.00
8286;BME280;4181;43.416;24.598;2023-03-18T01:30:35;100695.75;;;5.76;100.00
8286;BME280;4181;43.416;24.598;2023-03-18T01:33:01;100713.09;;;5.88;100.00
8286;BME280;4181;43.416;24.598;2023-03-18T01:35:30;100718.09;;;5.91;100.00
8286;BME280;4181;43.416;24.598;2023-03-18T01:37:56;100715.38;;;5.91;100.00
8286;BME280;4181;43.416;24.598;2023-03-18T01:40:23;100724.97;;;6.00;100.00
8286;BME280;4181;43.416;24.598;2023-03-18T01:42:58;100720.78;;;6.04;100.00
8286;BME280;4181;43.416;24.598;2023-03-18T01:45:29;100710.81;;;5.98;100.00
8286;BME280;4181;43.416;24.598;2023-03-18T01:47:56;100727.06;;;6.05;100.00
8286;BME280;4181;43.416;24.598;2023-03-18T01:50:29;100718.28;;;5.96;100.00
8286;BME280;4181;43.416;24.598;2023-03-18T01:53:22;100720.78;;;5.91;100.00
8286;BME280;4181;43.416;24.598;2023-03-18T01:55:49;100732.88;;;5.82;100.00
8286;BME280;4181;43.416;24.598;2023-03-18T01:58:25;100718.81;;;5.53;100.00
8286;BME280;4181;43.416;24.598;2023-03-18T02:01:01;100718.22;;;5.57;100.00
8286;BME280;4181;43.416;24.598;2023-03-18T02:03:27;100707.63;;;5.62;100.00
8286;BME280;4181;43.416;24.598;2023-03-18T02:05:54;100714.47;;;5.71;100.00
8286;BME280;4181;43.416;24.598;2023-03-18T02:08:20;100713.84;;;5.69;100.00
8286;BME280;4181;43.416;24.598;2023-03-18T02:10:45;100713.84;;;5.69;100.00
8286;BME280;4181;43.416;24.598;2023-03-18T02:13:13;100716.75;;;5.61;100.00
8286;BME280;4181;43.416;24.598;2023-03-18T02:15:46;100706.75;;;5.55;100.00
8286;BME280;4181;43.416;24.598;2023-03-18T02:18:20;100721.97;;;5.63;100.00
8286;BME280;4181;43.416;24.598;2023-03-18T02:26:39;100720.81;;;5.25;100.00
8286;BME280;4181;43.416;24.598;2023-03-18T02:29:10;100713.72;;;5.17;100.00
8286;BME280;4181;43.416;24.598;2023-03-18T02:31:38;100709.41;;;5.36;100.00
8286;BME280;4181;43.416;24.598;2023-03-18T02:34:06;100708.81;;;5.47;100.00
8286;BME280;4181;43.416;24.598;2023-03-18T02:36:34;100707.56;;;5.49;100.00
8286;BME280;4181;43.416;24.598;2023-03-18T02:39:00;100710.13;;;5.64;100.00
8286;BME280;4181;43.416;24.598;2023-03-18T02:41:29;100714.28;;;5.73;100.00
8286;BME280;4181;43.416;24.598;2023-03-18T02:43:56;100718.25;;;5.77;100.00
8286;BME280;4181;43.416;24.598;2023-03-18T02:49:03;100711.59;;;5.86;100.00
8286;BME280;4181;43.416;24.598;2023-03-18T02:51:32;100695.31;;;5.79;100.00
8286;BME280;4181;43.416;24.598;2023-03-18T02:54:12;100703.69;;;5.91;100.00
8286;BME280;4181;43.416;24.598;2023-03-18T02:56:39;100715.38;;;5.91;100.00
8286;BME280;4181;43.416;24.598;2023-03-18T02:59:05;100694.56;;;5.85;100.00
8286;BME280;4181;43.416;24.598;2023-03-18T03:01:32;100709.75;;;5.93;100.00
8286;BME280;4181;43.416;24.598;2023-03-18T03:03:58;100716.22;;;5.98;100.00
8286;BME280;4181;43.416;24.598;2023-03-18T03:06:24;100717.41;;;5.76;100.00
8286;BME280;4181;43.416;24.598;2023-03-18T03:08:51;100699.88;;;5.59;100.00
8286;BME280;4181;43.416;24.598;2023-03-18T03:11:17;100677.63;;;5.57;100.00
8286;BME280;4181;43.416;24.598;2023-03-18T03:13:43;100689.47;;;5.56;100.00
8286;BME280;4181;43.416;24.598;2023-03-18T03:16:14;100697.78;;;5.55;100.00
8286;BME280;4181;43.416;24.598;2023-03-18T03:18:40;100686.72;;;5.30;100.00
8286;BME280;4181;43.416;24.598;2023-03-18T03:21:07;100686.75;;;5.43;100.00
8286;BME280;4181;43.416;24.598;2023-03-18T03:23:33;100682.19;;;5.50;100.00
8286;BME280;4181;43.416;24.598;2023-03-18T03:25:59;100678.19;;;5.33;100.00
8286;BME280;4181;43.416;24.598;2023-03-18T03:28:25;100663.38;;;5.22;100.00
8286;BME280;4181;43.416;24.598;2023-03-18T03:30:51;100669.81;;;5.15;100.00
8286;BME280;4181;43.416;24.598;2023-03-18T03:33:17;100676.50;;;5.26;100.00
8286;BME280;4181;43.416;24.598;2023-03-18T03:35:42;100655.22;;;5.16;100.00
8286;BME280;4181;43.416;24.598;2023-03-18T03:38:08;100650.91;;;5.22;100.00
8286;BME280;4181;43.416;24.598;2023-03-18T03:40:35;100679.44;;;5.31;100.00
8286;BME280;4181;43.416;24.598;2023-03-18T03:43:01;100678.97;;;5.14;100.00
8286;BME280;4181;43.416;24.598;2023-03-18T03:45:27;100670.91;;;5.27;100.00
8286;BME280;4181;43.416;24.598;2023-03-18T03:47:52;100671.13;;;5.39;100.00
8286;BME280;4181;43.416;24.598;2023-03-18T03:50:18;100652.19;;;5.39;100.00
8286;BME280;4181;43.416;24.598;2023-03-18T03:52:44;100663.88;;;5.59;100.00
8286;BME280;4181;43.416;24.598;2023-03-18T03:55:12;100672.44;;;5.82;100.00
8286;BME280;4181;43.416;24.598;2023-03-18T03:57:40;100668.09;;;5.94;100.00
8286;BME280;4181;43.416;24.598;2023-03-18T04:00:09;100670.59;;;6.02;100.00
8286;BME280;4181;43.416;24.598;2023-03-18T04:02:38;100668.72;;;6.09;100.00
8286;BME280;4181;43.416;24.598;2023-03-18T04:05:05;100672.25;;;6.16;100.00
8286;BME280;4181;43.416;24.598;2023-03-18T04:07:31;100656.63;;;5.98;100.00
8286;BME280;4181;43.416;24.598;2023-03-18T04:09:56;100669.97;;;6.00;100.00
8286;BME280;4181;43.416;24.598;2023-03-18T04:12:22;100690.41;;;6.09;100.00
8286;BME280;4181;43.416;24.598;2023-03-18T04:14:47;100665.53;;;5.73;100.00
8286;BME280;4181;43.416;24.598;2023-03-18T04:17:14;100678.94;;;5.87;100.00
8286;BME280;4181;43.416;24.598;2023-03-18T04:19:40;100694.97;;;6.08;100.00
8286;BME280;4181;43.416;24.598;2023-03-18T04:22:05;100677.66;;;6.09;100.00
8286;BME280;4181;43.416;24.598;2023-03-18T04:24:31;100693.31;;;6.20;100.00
8286;BME280;4181;43.416;24.598;2023-03-18T04:26:57;100692.03;;;6.29;100.00
8286;BME280;4181;43.416;24.598;2023-03-18T04:29:22;100689.09;;;6.31;100.00
8286;BME280;4181;43.416;24.598;2023-03-18T04:31:48;100700.34;;;6.41;100.00
8286;BME280;4181;43.416;24.598;2023-03-18T04:34:13;100692.03;;;6.43;100.00
8286;BME280;4181;43.416;24.598;2023-03-18T04:36:39;100704.50;;;6.57;100.00
8286;BME280;4181;43.416;24.598;2023-03-18T04:39:05;100679.72;;;6.40;100.00
8286;BME280;4181;43.416;24.598;2023-03-18T04:41:30;100698.25;;;6.50;100.00
8286;BME280;4181;43.416;24.598;2023-03-18T04:43:56;100719.50;;;6.53;100.00
8286;BME280;4181;43.416;24.598;2023-03-18T04:46:22;100722.84;;;6.55;100.00
8286;BME280;4181;43.416;24.598;2023-03-18T04:48:47;100699.31;;;6.42;100.00
8286;BME280;4181;43.416;24.598;2023-03-18T04:51:14;100712.47;;;6.38;100.00
8286;BME280;4181;43.416;24.598;2023-03-18T04:53:40;100708.69;;;6.46;100.00
8286;BME280;4181;43.416;24.598;2023-03-18T04:56:06;100704.75;;;6.42;100.00
8286;BME280;4181;43.416;24.598;2023-03-18T04:58:33;100694.75;;;6.43;100.00
8286;BME280;4181;43.416;24.598;2023-03-18T05:00:59;100714.94;;;6.47;100.00
8286;BME280;4181;43.416;24.598;2023-03-18T05:03:24;100719.16;;;6.43;100.00
8286;BME280;4181;43.416;24.598;2023-03-18T05:05:50;100725.59;;;6.41;100.00
8286;BME280;4181;43.416;24.598;2023-03-18T05:08:16;100719.13;;;6.29;100.00
8286;BME280;4181;43.416;24.598;2023-03-18T05:10:42;100722.03;;;6.34;100.00
8286;BME280;4181;43.416;24.598;2023-03-18T05:13:07;100694.97;;;6.08;100.00
8286;BME280;4181;43.416;24.598;2023-03-18T05:15:33;100717.47;;;6.22;100.00
8286;BME280;4181;43.416;24.598;2023-03-18T05:18:00;100722.25;;;6.33;100.00
8286;BME280;4181;43.416;24.598;2023-03-18T05:20:25;100696.63;;;5.90;100.00
8286;BME280;4181;43.416;24.598;2023-03-18T05:22:50;100717.88;;;5.99;100.00
8286;BME280;4181;43.416;24.598;2023-03-18T05:25:17;100722.06;;;6.08;100.00
8286;BME280;4181;43.416;24.598;2023-03-18T05:27:43;100738.53;;;6.13;100.00
8286;BME280;4181;43.416;24.598;2023-03-18T05:30:09;100734.56;;;6.16;100.00
8286;BME280;4181;43.416;24.598;2023-03-18T05:32:35;100730.41;;;6.13;100.00
8286;BME280;4181;43.416;24.598;2023-03-18T05:35:01;100713.50;;;5.92;100.00
8286;BME280;4181;43.416;24.598;2023-03-18T05:37:28;100726.63;;;6.21;100.00
8286;BME280;4181;43.416;24.598;2023-03-18T05:39:54;100737.50;;;6.27;100.00
8286;BME280;4181;43.416;24.598;2023-03-18T05:42:19;100709.97;;;6.30;100.00
8286;BME280;4181;43.416;24.598;2023-03-18T05:44:45;100726.22;;;6.43;100.00
8286;BME280;4181;43.416;24.598;2023-03-18T05:47:10;100707.50;;;6.22;100.00
8286;BME280;4181;43.416;24.598;2023-03-18T05:49:36;100739.97;;;6.55;100.00
8286;BME280;4181;43.416;24.598;2023-03-18T05:52:03;100717.56;;;6.92;100.00
8286;BME280;4181;43.416;24.598;2023-03-18T05:54:29;100723.59;;;7.01;100.00
8286;BME280;4181;43.416;24.598;2023-03-18T05:56:54;100724.13;;;7.22;100.00
8286;BME280;4181;43.416;24.598;2023-03-18T05:59:20;100747.41;;;7.43;100.00
8286;BME280;4181;43.416;24.598;2023-03-18T06:01:48;100747.28;;;7.25;100.00
8286;BME280;4181;43.416;24.598;2023-03-18T06:04:14;100767.34;;;7.24;100.00
8286;BME280;4181;43.416;24.598;2023-03-18T06:06:42;100767.78;;;7.08;100.00
8286;BME280;4181;43.416;24.598;2023-03-18T06:09:09;100769.00;;;7.25;100.00
8286;BME280;4181;43.416;24.598;2023-03-18T06:11:36;100764.69;;;7.55;100.00
8286;BME280;4181;43.416;24.598;2023-03-18T06:14:03;100750.72;;;7.89;100.00
8286;BME280;4181;43.416;24.598;2023-03-18T06:16:30;100747.47;;;7.74;100.00
8286;BME280;4181;43.416;24.598;2023-03-18T06:18:57;100771.44;;;7.84;100.00
8286;BME280;4181;43.416;24.598;2023-03-18T06:21:22;100789.16;;;7.86;100.00
8286;BME280;4181;43.416;24.598;2023-03-18T06:23:48;100782.25;;;7.90;100.00
8286;BME280;4181;43.416;24.598;2023-03-18T06:26:14;100778.19;;;8.06;100.00
8286;BME280;4181;43.416;24.598;2023-03-18T06:28:40;100775.34;;;7.94;100.00
8286;BME280;4181;43.416;24.598;2023-03-18T06:31:05;100779.16;;;8.24;100.00
8286;BME280;4181;43.416;24.598;2023-03-18T06:33:31;100777.88;;;8.76;100.00
8286;BME280;4181;43.416;24.598;2023-03-18T06:35:57;100769.19;;;9.04;100.00
8286;BME280;4181;43.416;24.598;2023-03-18T06:38:24;100766.47;;;9.04;100.00
8286;BME280;4181;43.416;24.598;2023-03-18T06:40:50;100794.47;;;9.11;100.00
8286;BME280;4181;43.416;24.598;2023-03-18T06:43:15;100802.78;;;8.98;100.00
8286;BME280;4181;43.416;24.598;2023-03-18T06:45:41;100800.19;;;8.84;100.00
8286;BME280;4181;43.416;24.598;2023-03-18T06:48:07;100837.06;;;8.25;100.00
8286;BME280;4181;43.416;24.598;2023-03-18T06:50:36;100835.91;;;8.01;100.00
8286;BME280;4181;43.416;24.598;2023-03-18T06:53:04;100829.03;;;7.99;100.00
8286;BME280;4181;43.416;24.598;2023-03-18T06:55:30;100835.72;;;7.96;100.00
8286;BME280;4181;43.416;24.598;2023-03-18T06:57:56;100836.25;;;8.18;100.00
8286;BME280;4181;43.416;24.598;2023-03-18T07:00:22;100844.41;;;8.11;100.00
8286;BME280;4181;43.416;24.598;2023-03-18T07:02:49;100854.00;;;7.83;100.00
8286;BME280;4181;43.416;24.598;2023-03-18T07:05:14;100852.97;;;7.77;100.00
8286;BME280;4181;43.416;24.598;2023-03-18T07:07:41;100851.13;;;7.71;100.00
8286;BME280;4181;43.416;24.598;2023-03-18T07:10:16;100852.81;;;8.03;100.00
8286;BME280;4181;43.416;24.598;2023-03-18T07:12:42;100840.28;;;8.40;100.00
8286;BME280;4181;43.416;24.598;2023-03-18T07:15:08;100842.16;;;8.70;100.00
8286;BME280;4181;43.416;24.598;2023-03-18T07:17:35;100846.38;;;8.91;100.00
8286;BME280;4181;43.416;24.598;2023-03-18T07:20:01;100849.06;;;9.16;100.00
8286;BME280;4181;43.416;24.598;2023-03-18T07:22:29;100821.09;;;9.27;100.00
8286;BME280;4181;43.416;24.598;2023-03-18T07:24:55;100819.44;;;9.44;100.00
8286;BME280;4181;43.416;24.598;2023-03-18T07:27:20;100858.19;;;9.46;100.00
8286;BME280;4181;43.416;24.598;2023-03-18T07:29:47;100860.53;;;9.42;100.00
8286;BME280;4181;43.416;24.598;2023-03-18T07:32:13;100863.94;;;9.13;100.00
8286;BME280;4181;43.416;24.598;2023-03-18T07:34:39;100841.44;;;9.06;100.00
8286;BME280;4181;43.416;24.598;2023-03-18T07:37:05;100830.41;;;9.19;100.00
8286;BME280;4181;43.416;24.598;2023-03-18T07:39:30;100842.38;;;9.36;100.00
8286;BME280;4181;43.416;24.598;2023-03-18T07:41:56;100851.03;;;9.45;100.00
8286;BME280;4181;43.416;24.598;2023-03-18T07:44:21;100868.00;;;9.29;100.00
8286;BME280;4181;43.416;24.598;2023-03-18T07:46:47;100869.47;;;9.07;100.00
8286;BME280;4181;43.416;24.598;2023-03-18T07:49:13;100861.63;;;9.35;100.00
8286;BME280;4181;43.416;24.598;2023-03-18T07:51:38;100869.06;;;9.64;100.00
8286;BME280;4181;43.416;24.598;2023-03-18T07:54:03;100871.66;;;9.59;100.00
8286;BME280;4181;43.416;24.598;2023-03-18T07:56:29;100859.38;;;9.86;100.00
8286;BME280;4181;43.416;24.598;2023-03-18T07:58:55;100866.06;;;10.01;100.00
8286;BME280;4181;43.416;24.598;2023-03-18T08:01:21;100897.34;;;9.45;100.00
8286;BME280;4181;43.416;24.598;2023-03-18T08:03:47;100909.31;;;9.44;100.00
8286;BME280;4181;43.416;24.598;2023-03-18T08:06:14;100903.94;;;9.37;100.00
8286;BME280;4181;43.416;24.598;2023-03-18T08:08:40;100899.56;;;9.54;100.00
8286;BME280;4181;43.416;24.598;2023-03-18T08:11:06;100913.34;;;9.41;100.00
8286;BME280;4181;43.416;24.598;2023-03-18T08:13:34;100899.81;;;9.53;100.00
8286;BME280;4181;43.416;24.598;2023-03-18T08:16:00;100930.16;;;9.32;100.00
8286;BME280;4181;43.416;24.598;2023-03-18T08:18:25;100920.41;;;9.00;100.00
8286;BME280;4181;43.416;24.598;2023-03-18T08:20:51;100932.38;;;8.67;100.00
8286;BME280;4181;43.416;24.598;2023-03-18T08:23:18;100937.38;;;8.39;100.00
8286;BME280;4181;43.416;24.598;2023-03-18T08:25:47;100931.84;;;8.52;100.00
8286;BME280;4181;43.416;24.598;2023-03-18T08:28:14;100946.97;;;8.42;100.00
8286;BME280;4181;43.416;24.598;2023-03-18T08:30:39;100941.50;;;8.79;100.00
8286;BME280;4181;43.416;24.598;2023-03-18T08:33:05;100953.25;;;8.42;100.00
8286;BME280;4181;43.416;24.598;2023-03-18T08:35:31;100976.63;;;7.99;100.00
8286;BME280;4181;43.416;24.598;2023-03-18T08:37:56;100973.94;;;7.80;100.00
8286;BME280;4181;43.416;24.598;2023-03-18T08:40:22;100968.31;;;7.74;100.00
8286;BME280;4181;43.416;24.598;2023-03-18T08:42:47;100965.94;;;8.04;100.00
8286;BME280;4181;43.416;24.598;2023-03-18T08:45:14;100940.81;;;8.53;100.00
8286;BME280;4181;43.416;24.598;2023-03-18T08:47:39;100911.94;;;8.83;100.00
8286;BME280;4181;43.416;24.598;2023-03-18T08:50:06;100929.53;;;9.54;100.00
8286;BME280;4181;43.416;24.598;2023-03-18T08:52:33;100955.81;;;9.00;100.00
8286;BME280;4181;43.416;24.598;2023-03-18T08:54:58;100954.72;;;8.76;100.00
8286;BME280;4181;43.416;24.598;2023-03-18T08:57:24;100941.81;;;9.21;100.00
8286;BME280;4181;43.416;24.598;2023-03-18T08:59:52;100951.63;;;9.22;100.00
8286;BME280;4181;43.416;24.598;2023-03-18T09:02:17;100946.78;;;8.74;100.00
8286;BME280;4181;43.416;24.598;2023-03-18T09:04:44;100950.91;;;9.08;100.00
8286;BME280;4181;43.416;24.598;2023-03-18T09:07:10;100952.81;;;9.08;100.00
8286;BME280;4181;43.416;24.598;2023-03-18T09:09:37;100959.44;;;9.12;100.00
8286;BME280;4181;43.416;24.598;2023-03-18T09:12:03;100965.47;;;9.20;100.00
8286;BME280;4181;43.416;24.598;2023-03-18T09:14:31;100937.63;;;8.93;100.00
8286;BME280;4181;43.416;24.598;2023-03-18T09:16:57;100935.84;;;9.30;100.00
8286;BME280;4181;43.416;24.598;2023-03-18T09:19:24;100951.25;;;9.61;100.00
8286;BME280;4181;43.416;24.598;2023-03-18T09:21:50;100913.50;;;10.00;100.00
8286;BME280;4181;43.416;24.598;2023-03-18T09:24:15;100915.84;;;9.97;100.00
8286;BME280;4181;43.416;24.598;2023-03-18T09:26:41;100916.22;;;10.00;100.00
8286;BME280;4181;43.416;24.598;2023-03-18T09:29:06;100928.84;;;9.95;100.00
8286;BME280;4181;43.416;24.598;2023-03-18T09:31:32;100937.19;;;9.64;100.00
8286;BME280;4181;43.416;24.598;2023-03-18T09:33:57;100921.19;;;10.03;100.00
8286;BME280;4181;43.416;24.598;2023-03-18T09:36:22;100926.38;;;10.59;100.00
8286;BME280;4181;43.416;24.598;2023-03-18T09:38:49;100924.03;;;10.15;100.00
8286;BME280;4181;43.416;24.598;2023-03-18T09:41:41;100949.16;;;9.81;100.00
8286;BME280;4181;43.416;24.598;2023-03-18T09:44:22;100929.41;;;9.85;100.00
8286;BME280;4181;43.416;24.598;2023-03-18T09:52:24;100935.78;;;10.15;100.00
8286;BME280;4181;43.416;24.598;2023-03-18T09:55:11;100933.88;;;9.98;100.00
8286;BME280;4181;43.416;24.598;2023-03-18T09:57:44;100933.88;;;10.16;100.00
8286;BME280;4181;43.416;24.598;2023-03-18T10:02:46;100940.84;;;9.94;100.00
8286;BME280;4181;43.416;24.598;2023-03-18T10:06:06;100929.03;;;9.82;100.00
8286;BME280;4181;43.416;24.598;2023-03-18T10:08:12;100928.34;;;10.23;100.00
8286;BME280;4181;43.416;24.598;2023-03-18T10:10:43;100914.34;;;10.19;100.00
8286;BME280;4181;43.416;24.598;2023-03-18T10:13:28;100911.44;;;10.32;100.00
8286;BME280;4181;43.416;24.598;2023-03-18T10:15:57;100901.34;;;10.33;100.00
8286;BME280;4181;43.416;24.598;2023-03-18T10:18:35;100890.91;;;10.30;100.00
8286;BME280;4181;43.416;24.598;2023-03-18T10:23:48;100889.88;;;10.83;100.00
8286;BME280;4181;43.416;24.598;2023-03-18T10:26:40;100903.78;;;10.52;100.00
8286;BME280;4181;43.416;24.598;2023-03-18T10:29:30;100892.09;;;10.34;100.00
8286;BME280;4181;43.416;24.598;2023-03-18T10:34:52;100892.78;;;10.59;100.00
8286;BME280;4181;43.416;24.598;2023-03-18T10:37:41;100902.44;;;10.73;100.00
8286;BME280;4181;43.416;24.598;2023-03-18T10:40:13;100890.72;;;10.84;100.00
8286;BME280;4181;43.416;24.598;2023-03-18T10:42:40;100877.81;;;10.50;100.00
8286;BME280;4181;43.416;24.598;2023-03-18T10:45:27;100872.81;;;10.99;100.00
8286;BME280;4181;43.416;24.598;2023-03-18T10:50:38;100863.53;;;11.23;100.00
8286;BME280;4181;43.416;24.598;2023-03-18T10:53:29;100851.28;;;11.72;100.00
8286;BME280;4181;43.416;24.598;2023-03-18T10:56:11;100824.28;;;12.32;100.00
8286;BME280;4181;43.416;24.598;2023-03-18T10:58:39;100834.59;;;12.25;100.00
8286;BME280;4181;43.416;24.598;2023-03-18T11:01:06;100814.41;;;12.14;100.00
8286;BME280;4181;43.416;24.598;2023-03-18T11:04:20;100826.19;;;11.75;100.00
8286;BME280;4181;43.416;24.598;2023-03-18T11:06:25;100830.09;;;11.79;100.00
8286;BME280;4181;43.416;24.598;2023-03-18T11:09:17;100830.31;;;12.17;100.00
8286;BME280;4181;43.416;24.598;2023-03-18T11:12:05;100804.88;;;12.33;100.00
8286;BME280;4181;43.416;24.598;2023-03-18T11:14:32;100805.56;;;11.96;100.00
8286;BME280;4181;43.416;24.598;2023-03-18T11:17:04;100821.66;;;11.81;100.00
8286;BME280;4181;43.416;24.598;2023-03-18T11:19:36;100808.28;;;11.96;100.00
8286;BME280;4181;43.416;24.598;2023-03-18T11:24:32;100808.16;;;12.02;100.00
8286;BME280;4181;43.416;24.598;2023-03-18T11:27:25;100805.31;;;11.97;100.00
8286;BME280;4181;43.416;24.598;2023-03-18T11:34:56;100789.63;;;12.21;100.00
8286;BME280;4181;43.416;24.598;2023-03-18T11:37:26;100773.34;;;11.98;100.00
8286;BME280;4181;43.416;24.598;2023-03-18T11:40:06;100779.97;;;12.30;100.00
8286;BME280;4181;43.416;24.598;2023-03-18T11:42:43;100770.31;;;12.44;100.00
8286;BME280;4181;43.416;24.598;2023-03-18T11:47:47;100772.41;;;12.53;100.00
8286;BME280;4181;43.416;24.598;2023-03-18T11:50:21;100762.72;;;12.46;100.00
8286;BME280;4181;43.416;24.598;2023-03-18T11:53:09;100756.88;;;12.75;100.00
8286;BME280;4181;43.416;24.598;2023-03-18T11:55:52;100754.97;;;12.76;100.00
8286;BME280;4181;43.416;24.598;2023-03-18T12:06:27;100752.00;;;12.61;100.00
8286;BME280;4181;43.416;24.598;2023-03-18T12:14:39;100735.00;;;12.59;100.00
8286;BME280;4181;43.416;24.598;2023-03-18T12:22:48;100756.38;;;12.62;100.00
8286;BME280;4181;43.416;24.598;2023-03-18T12:25:20;100744.34;;;12.96;100.00
8286;BME280;4181;43.416;24.598;2023-03-18T12:27:57;100744.47;;;13.23;100.00
8286;BME280;4181;43.416;24.598;2023-03-18T12:30:48;100736.19;;;13.39;100.00
8286;BME280;4181;43.416;24.598;2023-03-18T12:35:51;100749.06;;;13.39;100.00
8286;BME280;4181;43.416;24.598;2023-03-18T12:38:44;100731.91;;;13.48;100.00
8286;BME280;4181;43.416;24.598;2023-03-18T12:49:38;100726.72;;;13.52;100.00
8286;BME280;4181;43.416;24.598;2023-03-18T12:52:08;100728.09;;;13.49;100.00
8286;BME280;4181;43.416;24.598;2023-03-18T12:54:39;100737.53;;;13.58;100.00
8286;BME280;4181;43.416;24.598;2023-03-18T12:57:27;100726.94;;;13.45;100.00
8286;BME280;4181;43.416;24.598;2023-03-18T13:00:02;100747.69;;;12.48;100.00
8286;BME280;4181;43.416;24.598;2023-03-18T13:05:46;100774.69;;;12.12;100.00
8286;BME280;4181;43.416;24.598;2023-03-18T13:08:40;100774.28;;;12.03;100.00
8286;BME280;4181;43.416;24.598;2023-03-18T13:11:32;100760.56;;;12.31;100.00
8286;BME280;4181;43.416;24.598;2023-03-18T13:16:58;100772.91;;;12.50;100.00
8286;BME280;4181;43.416;24.598;2023-03-18T13:19:25;100756.13;;;12.30;100.00
8286;BME280;4181;43.416;24.598;2023-03-18T13:21:59;100755.06;;;12.31;100.00
8286;BME280;4181;43.416;24.598;2023-03-18T13:41:12;100746.97;;;12.53;100.00
8286;BME280;4181;43.416;24.598;2023-03-18T13:43:43;100746.03;;;12.31;100.00
8286;BME280;4181;43.416;24.598;2023-03-18T13:46:25;100740.22;;;12.60;100.00
8286;BME280;4181;43.416;24.598;2023-03-18T13:49:00;100725.16;;;12.96;100.00
8286;BME280;4181;43.416;24.598;2023-03-18T13:53:56;100715.78;;;13.30;100.00
8286;BME280;4181;43.416;24.598;2023-03-18T13:58:52;100721.16;;;13.42;100.00
8286;BME280;4181;43.416;24.598;2023-03-18T14:01:33;100715.03;;;13.35;100.00
8286;BME280;4181;43.416;24.598;2023-03-18T14:04:20;100723.63;;;13.43;100.00
8286;BME280;4181;43.416;24.598;2023-03-18T14:07:17;100692.97;;;13.25;100.00
8286;BME280;4181;43.416;24.598;2023-03-18T14:22:35;100741.66;;;12.63;100.00
8286;BME280;4181;43.416;24.598;2023-03-18T14:32:59;100746.78;;;12.43;100.00
8286;BME280;4181;43.416;24.598;2023-03-18T14:38:13;100755.34;;;12.63;100.00
8286;BME280;4181;43.416;24.598;2023-03-18T14:40:48;100742.00;;;12.50;100.00
8286;BME280;4181;43.416;24.598;2023-03-18T14:43:21;100744.22;;;12.53;100.00
8286;BME280;4181;43.416;24.598;2023-03-18T14:45:50;100746.78;;;12.59;100.00
8286;BME280;4181;43.416;24.598;2023-03-18T14:48:27;100750.03;;;12.40;100.00
8286;BME280;4181;43.416;24.598;2023-03-18T14:51:13;100752.97;;;12.38;100.00
8286;BME280;4181;43.416;24.598;2023-03-18T14:54:05;100742.88;;;12.55;100.00
8286;BME280;4181;43.416;24.598;2023-03-18T14:56:38;100714.38;;;12.35;100.00
8286;BME280;4181;43.416;24.598;2023-03-18T14:59:05;100752.00;;;12.61;100.00
8286;BME280;4181;43.416;24.598;2023-03-18T15:01:39;100742.13;;;12.43;100.00
8286;BME280;4181;43.416;24.598;2023-03-18T15:04:09;100747.94;;;12.47;100.00
8286;BME280;4181;43.416;24.598;2023-03-18T15:06:38;100722.16;;;12.43;100.00